createdAt,value
2019-05-06T00:00:56.449Z,8.90
2019-05-06T00:03:24.308Z,8.80
2019-05-06T00:05:54.512Z,8.70
2019-05-06T00:08:24.749Z,8.80
2019-05-06T00:10:55.087Z,8.80
2019-05-06T00:13:25.340Z,8.90
2019-05-06T00:15:55.650Z,8.80
2019-05-06T00:18:26.668Z,8.90
2019-05-06T00:20:57.587Z,8.70
2019-05-06T00:23:37.767Z,8.70
2019-05-06T00:26:26.881Z,8.70
2019-05-06T00:29:00.039Z,8.70
2019-05-06T00:31:30.325Z,8.50
2019-05-06T00:34:00.576Z,8.60
2019-05-06T00:36:30.857Z,8.60
2019-05-06T00:39:10.901Z,8.50
2019-05-06T00:41:41.085Z,8.40
2019-05-06T00:44:11.325Z,8.50
2019-05-06T00:46:43.688Z,8.20
2019-05-06T00:49:14.358Z,8.40
2019-05-06T00:51:44.673Z,8.30
2019-05-06T00:54:18.728Z,8.30
2019-05-06T00:56:48.964Z,8.30
2019-05-06T00:59:19.229Z,8.30
2019-05-06T01:01:49.492Z,8.30
2019-05-06T01:04:19.670Z,8.20
2019-05-06T01:06:49.869Z,8.30
2019-05-06T01:09:20.649Z,8.20
2019-05-06T01:11:54.163Z,8.30
2019-05-06T01:14:30.417Z,8.30
2019-05-06T01:17:00.723Z,8.20
2019-05-06T01:19:30.945Z,8.10
2019-05-06T01:22:01.125Z,8.10
2019-05-06T01:24:31.335Z,8.00
2019-05-06T01:27:01.546Z,8.10
2019-05-06T01:29:31.708Z,8.20
2019-05-06T01:32:03.708Z,8.30
2019-05-06T01:34:34.173Z,8.30
2019-05-06T01:37:04.550Z,8.40
2019-05-06T01:39:46.104Z,8.40
2019-05-06T01:42:41.178Z,8.50
2019-05-06T01:45:11.641Z,8.40
2019-05-06T01:47:43.723Z,8.40
2019-05-06T01:50:14.093Z,8.50
2019-05-06T01:52:44.372Z,8.50
2019-05-06T01:55:14.517Z,8.50
2019-05-06T01:57:44.783Z,8.40
2019-05-06T02:00:15.380Z,8.40
2019-05-06T02:02:45.596Z,8.30
2019-05-06T02:05:15.866Z,8.40
2019-05-06T02:07:46.068Z,8.40
2019-05-06T02:10:16.220Z,8.30
2019-05-06T02:12:46.533Z,8.40
2019-05-06T02:15:16.805Z,8.40
2019-05-06T02:17:47.009Z,8.40
2019-05-06T02:20:17.281Z,8.40
2019-05-06T02:22:56.242Z,8.30
2019-05-06T02:25:34.021Z,8.30
2019-05-06T02:28:04.035Z,8.40
2019-05-06T02:30:56.335Z,8.20
2019-05-06T02:33:55.919Z,8.20
2019-05-06T02:36:49.616Z,8.40
2019-05-06T02:39:23.368Z,8.40
2019-05-06T02:41:54.606Z,8.40
2019-05-06T02:44:24.169Z,8.30
2019-05-06T02:47:02.991Z,8.40
2019-05-06T02:49:40.347Z,8.40
2019-05-06T02:52:13.813Z,8.40
2019-05-06T02:54:42.846Z,8.20
2019-05-06T02:57:13.358Z,8.30
2019-05-06T02:59:44.349Z,8.40
2019-05-06T03:02:14.537Z,8.40
2019-05-06T03:04:44.798Z,8.40
2019-05-06T03:07:15.145Z,8.40
2019-05-06T03:09:45.363Z,8.40
2019-05-06T03:12:15.588Z,8.50
2019-05-06T03:14:45.771Z,8.40
2019-05-06T03:17:16.037Z,8.40
2019-05-06T03:19:47.894Z,8.40
2019-05-06T03:22:43.732Z,8.40
2019-05-06T03:25:17.154Z,8.50
2019-05-06T03:27:47.346Z,8.50
2019-05-06T03:30:17.734Z,8.50
2019-05-06T03:33:27.560Z,8.50
2019-05-06T03:35:36.452Z,8.50
2019-05-06T03:37:53.322Z,8.30
2019-05-06T03:40:23.877Z,8.30
2019-05-06T03:42:54.241Z,8.40
2019-05-06T03:45:43.437Z,8.40
2019-05-06T03:48:24.950Z,8.30
2019-05-06T03:50:56.032Z,8.30
2019-05-06T03:53:29.464Z,8.30
2019-05-06T03:55:59.631Z,8.30
2019-05-06T03:58:30.997Z,8.30
2019-05-06T04:01:03.774Z,8.20
2019-05-06T04:03:47.284Z,8.20
2019-05-06T04:06:06.061Z,8.10
2019-05-06T04:08:36.723Z,8.10
2019-05-06T04:11:07.099Z,8.20
2019-05-06T04:13:37.937Z,8.20
2019-05-06T04:16:22.816Z,8.20
2019-05-06T04:19:05.228Z,8.20
2019-05-06T04:21:47.906Z,8.10
2019-05-06T04:24:43.368Z,8.10
2019-05-06T04:27:46.065Z,8.00
2019-05-06T04:30:16.546Z,8.10
2019-05-06T04:32:46.927Z,8.10
2019-05-06T04:35:17.206Z,8.10
2019-05-06T04:37:47.646Z,8.10
2019-05-06T04:40:18.546Z,8.00
2019-05-06T04:42:48.836Z,8.00
2019-05-06T04:45:19.029Z,7.80
2019-05-06T04:47:49.303Z,7.90
2019-05-06T04:50:19.515Z,8.00
2019-05-06T04:53:04.506Z,7.90
2019-05-06T04:55:35.301Z,8.00
2019-05-06T04:58:06.232Z,8.10
2019-05-06T05:00:37.387Z,8.20
2019-05-06T05:03:07.791Z,8.10
2019-05-06T05:05:37.996Z,8.10
2019-05-06T05:08:08.277Z,8.00
2019-05-06T05:10:45.949Z,8.10
2019-05-06T05:13:32.747Z,8.10
2019-05-06T05:16:24.053Z,8.00
2019-05-06T05:18:57.454Z,8.00
2019-05-06T05:21:27.754Z,7.80
2019-05-06T05:23:58.208Z,8.00
2019-05-06T05:26:28.901Z,8.20
2019-05-06T05:28:59.221Z,8.20
2019-05-06T05:31:29.395Z,8.20
2019-05-06T05:33:59.598Z,8.20
2019-05-06T05:36:29.988Z,8.20
2019-05-06T05:39:03.114Z,8.30
2019-05-06T05:41:33.148Z,8.30
2019-05-06T05:44:19.657Z,8.30
2019-05-06T05:46:51.852Z,8.50
2019-05-06T05:49:42.168Z,8.50
2019-05-06T05:52:13.096Z,8.50
2019-05-06T05:54:43.632Z,8.50
2019-05-06T05:57:13.929Z,8.50
2019-05-06T05:59:44.218Z,8.40
2019-05-06T06:02:14.636Z,8.40
2019-05-06T06:04:56.466Z,8.40
2019-05-06T06:07:17.324Z,8.50
2019-05-06T06:09:55.343Z,8.60
2019-05-06T06:12:25.985Z,8.60
2019-05-06T06:15:24.123Z,8.60
2019-05-06T06:18:03.800Z,8.50
2019-05-06T06:21:19.228Z,8.10
2019-05-06T06:23:44.097Z,8.40
2019-05-06T06:26:14.307Z,8.40
2019-05-06T06:28:44.484Z,8.60
2019-05-06T06:31:33.705Z,8.60
2019-05-06T06:34:22.973Z,8.80
2019-05-06T06:37:18.343Z,8.90
2019-05-06T06:39:49.122Z,8.90
2019-05-06T06:42:19.309Z,8.80
2019-05-06T06:44:51.934Z,8.70
2019-05-06T06:47:22.508Z,8.80
2019-05-06T06:49:53.442Z,8.80
2019-05-06T06:52:23.956Z,8.90
2019-05-06T06:54:54.260Z,8.90
2019-05-06T06:57:34.549Z,8.90
2019-05-06T07:00:33.148Z,9.00
2019-05-06T07:03:12.291Z,9.10
2019-05-06T07:05:48.482Z,8.70
2019-05-06T07:08:32.078Z,8.90
2019-05-06T07:10:52.529Z,9.20
2019-05-06T07:13:23.279Z,9.20
2019-05-06T07:15:53.665Z,9.20
2019-05-06T07:18:23.926Z,9.30
2019-05-06T07:21:25.246Z,9.40
2019-05-06T07:23:55.531Z,9.30
2019-05-06T07:26:31.802Z,9.30
2019-05-06T07:29:16.876Z,9.40
2019-05-06T07:31:42.634Z,9.40
2019-05-06T07:34:13.165Z,9.40
2019-05-06T07:36:43.517Z,9.30
2019-05-06T07:39:15.351Z,9.10
2019-05-06T07:41:54.678Z,9.10
2019-05-06T07:44:43.464Z,9.10
2019-05-06T07:47:27.097Z,9.20
2019-05-06T07:49:57.396Z,9.20
2019-05-06T07:52:27.588Z,9.10
2019-05-06T07:54:57.892Z,9.20
2019-05-06T07:57:28.204Z,9.20
2019-05-06T07:59:58.432Z,9.20
2019-05-06T08:02:28.705Z,9.10
2019-05-06T08:04:58.943Z,9.00
2019-05-06T08:07:29.172Z,9.00
2019-05-06T08:09:59.401Z,9.00
2019-05-06T08:12:29.671Z,9.00
2019-05-06T08:15:04.522Z,9.10
2019-05-06T08:17:36.553Z,9.20
2019-05-06T08:20:07.596Z,9.40
2019-05-06T08:22:53.704Z,9.60
2019-05-06T08:25:24.326Z,9.80
2019-05-06T08:27:54.650Z,9.70
2019-05-06T08:30:25.019Z,9.70
2019-05-06T08:32:55.377Z,9.90
2019-05-06T08:35:25.706Z,10.00
2019-05-06T08:37:56.017Z,10.00
2019-05-06T08:40:26.599Z,10.20
2019-05-06T08:42:56.974Z,10.40
2019-05-06T08:45:27.338Z,10.50
2019-05-06T08:47:57.824Z,10.70
2019-05-06T08:50:46.019Z,10.90
2019-05-06T08:53:27.952Z,10.90
2019-05-06T08:55:58.230Z,10.70
2019-05-06T08:58:52.577Z,10.50
2019-05-06T09:01:28.240Z,10.20
2019-05-06T09:04:08.808Z,10.20
2019-05-06T09:06:34.184Z,10.20
2019-05-06T09:09:02.622Z,10.20
2019-05-06T09:11:32.833Z,10.30
2019-05-06T09:14:03.562Z,10.40
2019-05-06T09:16:33.912Z,10.40
2019-05-06T09:19:04.728Z,10.40
2019-05-06T09:21:35.146Z,10.40
2019-05-06T09:24:05.470Z,10.20
2019-05-06T09:26:48.764Z,10.30
2019-05-06T09:29:28.956Z,10.30
2019-05-06T09:32:02.030Z,10.30
2019-05-06T09:34:43.057Z,10.30
2019-05-06T09:37:14.232Z,10.30
2019-05-06T09:39:45.613Z,10.30
2019-05-06T09:42:16.187Z,10.30
2019-05-06T09:44:50.288Z,10.20
2019-05-06T09:47:28.455Z,10.30
2019-05-06T09:49:58.785Z,10.50
2019-05-06T09:52:29.121Z,10.60
2019-05-06T09:55:17.151Z,10.50
2019-05-06T09:58:06.677Z,10.40
2019-05-06T10:00:42.957Z,10.50
2019-05-06T10:03:13.413Z,10.60
2019-05-06T10:05:43.908Z,10.70
2019-05-06T10:08:14.214Z,10.80
2019-05-06T10:10:56.147Z,11.00
2019-05-06T10:13:16.400Z,11.30
2019-05-06T10:15:46.732Z,11.50
2019-05-06T10:18:17.043Z,11.50
2019-05-06T10:20:47.952Z,11.50
2019-05-06T10:23:18.239Z,11.70
2019-05-06T10:25:48.522Z,11.80
2019-05-06T10:28:36.468Z,12.00
2019-05-06T10:31:09.163Z,12.20
2019-05-06T10:33:56.741Z,12.30
2019-05-06T10:36:32.399Z,12.50
2019-05-06T10:39:07.267Z,12.60
2019-05-06T10:41:42.242Z,12.30
2019-05-06T10:44:58.205Z,12.00
2019-05-06T10:47:28.539Z,12.00
2019-05-06T10:49:58.860Z,12.00
2019-05-06T10:52:52.829Z,12.10
2019-05-06T10:55:23.275Z,12.10
2019-05-06T10:57:53.784Z,12.40
2019-05-06T11:00:24.100Z,12.70
2019-05-06T11:03:14.904Z,12.90
2019-05-06T11:05:44.532Z,12.40
2019-05-06T11:08:15.257Z,12.60
2019-05-06T11:10:45.858Z,12.50
2019-05-06T11:13:16.300Z,12.50
2019-05-06T11:15:46.620Z,12.70
2019-05-06T11:18:16.853Z,12.90
2019-05-06T11:20:47.138Z,12.90
2019-05-06T11:23:17.347Z,13.00
2019-05-06T11:25:47.652Z,13.40
2019-05-06T11:28:35.498Z,13.50
2019-05-06T11:31:16.646Z,13.40
2019-05-06T11:33:53.975Z,13.00
2019-05-06T11:36:49.264Z,12.70
2019-05-06T11:39:19.562Z,12.60
2019-05-06T11:42:06.415Z,12.30
2019-05-06T11:44:23.836Z,12.10
2019-05-06T11:46:53.704Z,11.80
2019-05-06T11:49:23.906Z,11.70
2019-05-06T11:51:55.469Z,11.70
2019-05-06T11:54:25.741Z,11.70
2019-05-06T11:56:58.401Z,11.60
2019-05-06T11:59:28.006Z,11.40
2019-05-06T12:02:03.332Z,11.10
2019-05-06T12:04:33.929Z,11.00
2019-05-06T12:07:11.100Z,10.90
2019-05-06T12:09:36.147Z,10.90
2019-05-06T12:12:06.359Z,10.90
2019-05-06T12:14:36.556Z,10.90
2019-05-06T12:17:06.866Z,11.00
2019-05-06T12:19:37.364Z,11.00
2019-05-06T12:22:07.678Z,11.10
2019-05-06T12:24:37.944Z,11.10
2019-05-06T12:27:08.221Z,11.20
2019-05-06T12:29:38.539Z,11.30
2019-05-06T12:32:33.231Z,11.40
2019-05-06T12:35:03.728Z,11.40
2019-05-06T12:37:34.220Z,11.70
2019-05-06T12:40:04.538Z,11.90
2019-05-06T12:42:43.191Z,11.80
2019-05-06T12:45:32.828Z,11.80
2019-05-06T12:48:20.741Z,11.70
2019-05-06T12:50:52.601Z,11.70
2019-05-06T12:53:23.237Z,11.60
2019-05-06T12:55:53.509Z,11.80
2019-05-06T12:58:24.132Z,11.90
2019-05-06T13:00:54.521Z,12.10
2019-05-06T13:03:24.874Z,12.40
2019-05-06T13:05:55.193Z,12.70
2019-05-06T13:08:28.882Z,12.90
2019-05-06T13:10:57.540Z,13.20
2019-05-06T13:13:27.753Z,13.40
2019-05-06T13:15:58.043Z,13.30
2019-05-06T13:18:28.379Z,13.10
2019-05-06T13:20:58.698Z,13.20
2019-05-06T13:23:43.321Z,13.20
2019-05-06T13:26:13.596Z,13.20
2019-05-06T13:28:47.857Z,13.00
2019-05-06T13:31:21.642Z,12.70
2019-05-06T13:33:54.642Z,12.60
2019-05-06T13:36:24.490Z,12.60
2019-05-06T13:39:09.438Z,12.70
2019-05-06T13:41:26.858Z,12.70
2019-05-06T13:44:06.701Z,12.80
2019-05-06T13:46:40.284Z,12.80
2019-05-06T13:49:44.644Z,12.70
2019-05-06T13:52:17.900Z,12.80
2019-05-06T13:54:48.182Z,12.70
2019-05-06T13:57:18.558Z,12.70
2019-05-06T13:59:48.811Z,12.80
2019-05-06T14:02:34.469Z,12.90
2019-05-06T14:05:05.527Z,13.00
2019-05-06T14:07:35.849Z,13.00
2019-05-06T14:10:06.508Z,13.10
2019-05-06T14:12:36.783Z,13.00
2019-05-06T14:15:08.093Z,12.80
2019-05-06T14:17:38.402Z,12.70
2019-05-06T14:20:08.881Z,12.50
2019-05-06T14:22:39.183Z,12.50
2019-05-06T14:25:27.536Z,12.60
2019-05-06T14:28:03.118Z,12.60
2019-05-06T14:30:54.932Z,12.60
2019-05-06T14:33:25.224Z,12.40
2019-05-06T14:35:55.443Z,12.50
2019-05-06T14:38:25.806Z,12.50
2019-05-06T14:41:07.994Z,12.50
2019-05-06T14:43:37.308Z,12.60
2019-05-06T14:46:07.690Z,12.50
2019-05-06T14:48:37.987Z,12.40
2019-05-06T14:51:08.258Z,12.40
2019-05-06T14:53:38.544Z,12.40
2019-05-06T14:56:14.720Z,12.40
2019-05-06T14:59:03.450Z,12.30
2019-05-06T15:01:34.941Z,12.20
2019-05-06T15:04:05.653Z,12.30
2019-05-06T15:06:36.022Z,12.40
2019-05-06T15:09:08.302Z,12.40
2019-05-06T15:11:38.612Z,12.50
2019-05-06T15:14:08.900Z,12.60
2019-05-06T15:16:39.139Z,12.60
2019-05-06T15:19:09.408Z,12.60
2019-05-06T15:21:39.694Z,12.60
2019-05-06T15:24:13.605Z,12.70
2019-05-06T15:26:42.832Z,12.70
2019-05-06T15:29:13.170Z,12.70
2019-05-06T15:32:02.588Z,12.70
2019-05-06T15:34:42.282Z,12.70
2019-05-06T15:37:24.607Z,12.60
2019-05-06T15:39:55.101Z,12.60
2019-05-06T15:42:25.454Z,12.60
2019-05-06T15:44:55.704Z,12.70
2019-05-06T15:47:26.009Z,12.80
2019-05-06T15:49:56.311Z,12.90
2019-05-06T15:52:26.501Z,12.70
2019-05-06T15:54:56.710Z,12.60
2019-05-06T15:57:26.930Z,12.60
2019-05-06T15:59:57.146Z,12.50
2019-05-06T16:02:27.445Z,12.50
2019-05-06T16:04:57.717Z,12.60
2019-05-06T16:07:27.936Z,12.60
2019-05-06T16:09:58.301Z,12.50
2019-05-06T16:12:28.568Z,12.60
2019-05-06T16:14:58.815Z,12.70
2019-05-06T16:17:29.201Z,12.80
2019-05-06T16:19:59.485Z,12.80
2019-05-06T16:22:29.774Z,12.70
2019-05-06T16:25:07.080Z,12.60
2019-05-06T16:27:37.396Z,12.60
2019-05-06T16:30:09.782Z,12.70
2019-05-06T16:32:41.966Z,12.50
2019-05-06T16:35:14.360Z,12.40
2019-05-06T16:37:44.733Z,12.40
2019-05-06T16:40:15.522Z,12.50
2019-05-06T16:42:46.215Z,12.50
2019-05-06T16:45:18.988Z,12.40
2019-05-06T16:47:49.365Z,12.50
2019-05-06T16:50:19.837Z,12.50
2019-05-06T16:52:52.366Z,12.50
2019-05-06T16:55:32.983Z,12.60
2019-05-06T16:58:08.679Z,12.60
2019-05-06T17:00:39.020Z,12.60
2019-05-06T17:03:26.557Z,12.60
2019-05-06T17:06:24.934Z,12.50
2019-05-06T17:08:55.261Z,12.40
2019-05-06T17:11:30.550Z,12.40
2019-05-06T17:13:57.573Z,12.40
2019-05-06T17:16:28.403Z,12.30
2019-05-06T17:18:59.231Z,12.30
2019-05-06T17:21:29.630Z,12.20
2019-05-06T17:24:02.166Z,12.20
2019-05-06T17:26:33.668Z,12.20
2019-05-06T17:29:16.306Z,12.20
2019-05-06T17:32:05.569Z,12.20
2019-05-06T17:34:45.591Z,12.20
2019-05-06T17:37:41.864Z,12.40
2019-05-06T17:40:14.214Z,12.40
2019-05-06T17:42:44.576Z,12.20
2019-05-06T17:45:32.916Z,12.20
2019-05-06T17:48:08.963Z,12.10
2019-05-06T17:50:39.277Z,12.00
2019-05-06T17:53:09.582Z,12.00
2019-05-06T17:55:39.893Z,12.00
2019-05-06T17:58:10.182Z,12.10
2019-05-06T18:00:42.782Z,12.10
2019-05-06T18:03:12.942Z,12.10
2019-05-06T18:05:43.240Z,12.00
2019-05-06T18:08:13.542Z,12.00
2019-05-06T18:10:43.864Z,12.10
2019-05-06T18:13:14.184Z,12.10
2019-05-06T18:15:44.420Z,12.10
2019-05-06T18:18:14.605Z,12.00
2019-05-06T18:20:44.892Z,12.10
2019-05-06T18:23:15.183Z,12.10
2019-05-06T18:25:45.423Z,12.20
2019-05-06T18:28:15.706Z,12.10
2019-05-06T18:30:45.985Z,12.00
2019-05-06T18:33:16.394Z,12.00
2019-05-06T18:35:46.716Z,11.90
2019-05-06T18:38:17.015Z,11.90
2019-05-06T18:40:47.323Z,12.00
2019-05-06T18:43:17.662Z,11.90
2019-05-06T18:45:48.026Z,12.00
2019-05-06T18:48:18.320Z,12.00
2019-05-06T18:50:48.639Z,12.00
2019-05-06T18:53:18.998Z,12.10
2019-05-06T18:55:49.254Z,12.10
2019-05-06T18:58:19.449Z,12.00
2019-05-06T19:00:49.769Z,12.00
2019-05-06T19:03:20.049Z,12.00
2019-05-06T19:05:52.852Z,11.90
2019-05-06T19:08:29.767Z,12.00
2019-05-06T19:11:02.338Z,12.00
2019-05-06T19:13:33.413Z,12.00
2019-05-06T19:16:03.986Z,12.00
2019-05-06T19:18:34.329Z,12.00
2019-05-06T19:21:05.975Z,11.90
2019-05-06T19:23:36.219Z,12.00
2019-05-06T19:26:06.536Z,11.90
2019-05-06T19:28:36.843Z,11.90
2019-05-06T19:31:07.195Z,11.90
2019-05-06T19:33:37.526Z,11.90
2019-05-06T19:36:07.840Z,11.90
2019-05-06T19:38:38.061Z,11.90
2019-05-06T19:41:08.373Z,11.90
2019-05-06T19:43:38.697Z,11.90
2019-05-06T19:46:09.036Z,11.90
2019-05-06T19:48:39.365Z,11.90
2019-05-06T19:51:09.713Z,11.90
2019-05-06T19:53:39.961Z,11.80
2019-05-06T19:56:12.228Z,11.80
2019-05-06T19:58:42.839Z,11.80
2019-05-06T20:01:13.335Z,11.80
2019-05-06T20:03:43.675Z,11.80
2019-05-06T20:06:35.813Z,11.70
2019-05-06T20:09:42.655Z,11.70
2019-05-06T20:12:19.477Z,11.70
2019-05-06T20:14:49.831Z,11.70
2019-05-06T20:17:22.213Z,11.50
2019-05-06T20:19:52.152Z,11.60
2019-05-06T20:22:23.033Z,11.50
2019-05-06T20:24:53.383Z,11.60
2019-05-06T20:27:23.758Z,11.40
2019-05-06T20:29:54.053Z,11.40
2019-05-06T20:32:24.300Z,11.40
2019-05-06T20:34:54.621Z,11.30
2019-05-06T20:37:24.869Z,11.20
2019-05-06T20:39:55.179Z,11.10
2019-05-06T20:42:25.530Z,11.10
2019-05-06T20:44:55.831Z,11.10
2019-05-06T20:47:26.164Z,11.10
2019-05-06T20:49:56.480Z,11.10
2019-05-06T20:52:26.790Z,11.20
2019-05-06T20:54:57.078Z,11.00
2019-05-06T20:57:27.402Z,11.10
2019-05-06T20:59:57.781Z,11.30
2019-05-06T21:02:28.023Z,11.30
2019-05-06T21:04:58.312Z,11.30
2019-05-06T21:07:28.603Z,11.30
2019-05-06T21:09:58.905Z,11.30
2019-05-06T21:12:29.263Z,11.30
2019-05-06T21:14:59.578Z,11.20
2019-05-06T21:17:29.867Z,11.20
2019-05-06T21:20:02.649Z,11.20
2019-05-06T21:22:32.211Z,11.20
2019-05-06T21:25:02.549Z,11.20
2019-05-06T21:27:32.914Z,11.20
2019-05-06T21:30:03.535Z,11.20
2019-05-06T21:32:33.841Z,11.30
2019-05-06T21:35:04.334Z,11.20
2019-05-06T21:37:34.670Z,11.20
2019-05-06T21:40:05.379Z,11.20
2019-05-06T21:42:35.685Z,11.20
2019-05-06T21:45:06.311Z,11.10
2019-05-06T21:47:36.523Z,11.10
2019-05-06T21:50:07.019Z,11.00
2019-05-06T21:52:39.835Z,10.90
2019-05-06T21:55:13.172Z,11.00
2019-05-06T21:57:43.446Z,10.90
2019-05-06T22:00:16.944Z,10.90
2019-05-06T22:02:46.287Z,11.00
2019-05-06T22:05:16.491Z,10.80
2019-05-06T22:07:46.784Z,10.80
2019-05-06T22:10:17.365Z,10.70
2019-05-06T22:12:47.704Z,10.70
2019-05-06T22:15:18.042Z,10.70
2019-05-06T22:17:48.342Z,10.60
2019-05-06T22:20:18.630Z,10.60
2019-05-06T22:22:48.941Z,10.60
2019-05-06T22:25:19.163Z,10.60
2019-05-06T22:27:49.454Z,10.60
2019-05-06T22:30:23.638Z,10.60
2019-05-06T22:32:52.705Z,10.60
2019-05-06T22:35:23.211Z,10.60
2019-05-06T22:37:53.551Z,10.50
2019-05-06T22:40:23.956Z,10.50
2019-05-06T22:42:54.237Z,10.50
2019-05-06T22:45:24.498Z,10.50
2019-05-06T22:47:54.989Z,10.50
2019-05-06T22:50:25.302Z,10.50
2019-05-06T22:52:55.710Z,10.60
2019-05-06T22:55:26.008Z,10.60
2019-05-06T22:57:56.221Z,10.70
2019-05-06T23:00:27.485Z,10.60
2019-05-06T23:03:04.578Z,10.70
2019-05-06T23:05:34.844Z,10.70
2019-05-06T23:08:05.174Z,10.70
2019-05-06T23:10:35.489Z,10.60
2019-05-06T23:13:05.708Z,10.30
2019-05-06T23:15:36.038Z,10.30
2019-05-06T23:18:06.412Z,10.30
2019-05-06T23:20:36.690Z,10.30
2019-05-06T23:23:06.944Z,10.40
2019-05-06T23:25:37.236Z,10.40
2019-05-06T23:28:07.454Z,10.40
2019-05-06T23:30:37.759Z,10.40
2019-05-06T23:33:08.065Z,10.20
2019-05-06T23:35:38.364Z,10.30
2019-05-06T23:38:44.006Z,10.10
2019-05-06T23:41:49.630Z,9.90
2019-05-06T23:44:55.085Z,9.90
2019-05-06T23:48:02.425Z,10.10
2019-05-06T23:51:08.089Z,9.70
2019-05-06T23:54:13.549Z,9.60
2019-05-06T23:56:43.697Z,9.60
2019-05-06T23:59:15.950Z,9.70
